Keystone Heights, FL

12:27 PM EST on February 08, 2016 (GMT -0500)
Keystone Beach-Keystone Heights | | Change Station
CLOSE
Current Station
Personal Weather Station
Location: Keystone Heights, FL
Elevation: 148 ft
Nearby Weather Stations

Elev 148 ft 29.78 °N, 82.04 °W | Updated 4 seconds ago

Clear
Clear
63.1 °F
Feels Like 63.1 °F
N
1.6
Wind Variable Wind from NW
Gusts 10.7 mph

Today
High -- | Low -- °F
--% Chance of Precip.
Yesterday
High -- | Low -- °F
Precip. -- in
Pressure 30.00 in
Visibility 10.0 miles
Clouds Clear
Dew Point 26 °F
Humidity 24%
Rainfall 0.00 in
Snow Depth Not available.
7:13 AM 6:10 PM
New Moon, 0% visible
METAR K42J 081715Z AUTO 27012KT 10SM CLR 16/M04 A3000 RMK AO1 TSNO
Pressure 30.00 in
Visibility 10.0 miles
Clouds Clear
Dew Point 26 °F
Humidity 24%
Rainfall 0.00 in
Snow Depth Not available.
7:13 AM 6:10 PM
New Moon, 0% visible
METAR K42J 081715Z AUTO 27012KT 10SM CLR 16/M04 A3000 RMK AO1 TSNO

10-Day Weather Forecast

Almanac

Astronomy

Feb. 08, 2016 Rise Set
Actual Time
Civil Twilight
Nautical Twilight
Astronomical Twilight
Moon
Length of Visible Light
Length of Day
Tomorrow will be .
, % of the Moon is Illuminated

Today's Extremes

State Highs State Lows

Community

WunderPhotos

Upload Photos

1,891,471 photos uploaded!

WunderBlog® & News

Nearby

Air Quality

  Air Quality AQ Index Pollutant
Not available.

Snow Depth

Station Depth Elevation

Earthquake Activity

City Distance Mag. Time & Date
Minimum magnitude displayed is 2.5.

Coastal Water Temperatures

Place Temperature

Stations

Nearby Weather Stations

Station Location Temp. Windchill Dew Point Humidity Wind Precip. Elev Updated Type
                   

Watches & Warnings

There are currently no watches in effect.